Home > Products > Valid Products > TAF

000
FTUS43 KGRB 241000 AAB
TAFGRB
TAF AMD
KGRB 241014Z 2410/2506 VRB03KT 3SM BR OVC010
     FM241400 24003KT 5SM BR BKN008
     FM241800 23005KT P6SM SCT012 BKN025
     FM242100 22005KT P6SM SCT025
     FM250300 19004KT 5SM BR SCT090=



000
FTUS43 KGRB 240700 AAA
TAFGRB
TAF AMD
KGRB 240718Z 2407/2506 VRB03KT 4SM BR OVC012
     FM240900 VRB03KT 2SM BR OVC005
     FM241400 24003KT 5SM BR BKN008
     FM241800 23005KT P6SM SCT012 BKN025
     FM242100 22005KT P6SM SCT025
     FM250300 19004KT 5SM BR SCT090=



000
FTUS43 KGRB 240500
TAFGRB
TAF
KGRB 240520Z 2406/2506 VRB03KT 2SM BR OVC012
     FM240800 VRB03KT 1/2SM FG VV002
     FM241400 24003KT 5SM BR BKN008
     FM241800 23005KT P6SM SCT012 BKN025
     FM242100 22005KT P6SM SCT025
     FM250300 19004KT 5SM BR SCT090=



000
FTUS43 KGRB 232300
TAFGRB
TAF
KGRB 232331Z 2400/2424 VRB03KT 3SM BR OVC020
     FM240200 24004KT 2SM BR OVC012
     FM240800 VRB03KT 1/2SM FG VV002
     FM241400 24003KT 5SM BR BKN008
     FM241800 23005KT P6SM SCT012 BKN025
     FM242100 22005KT P6SM SCT025=



000
FTUS43 KGRB 232200 AAB
TAFGRB
TAF AMD
KGRB 232205Z 2322/2418 19003KT 3SM -SHRA BR OVC025
     FM232300 21004KT 5SM -SHRA BR OVC020
     FM240100 24004KT 4SM BR BKN012
     FM240800 VRB03KT 1/2SM FG VV002
     FM241400 24003KT 5SM BR BKN008=



000
FTUS43 KGRB 231900 AAA
TAFGRB
TAF AMD
KGRB 231949Z 2320/2418 19007KT 6SM -SHRA SCT040 OVC070
      TEMPO 2321/2323 3SM -SHRA BR BKN035
     FM232300 19006KT 4SM -SHRA BR OVC015
     FM240100 24004KT 4SM BR BKN012
     FM240800 VRB03KT 1/2SM FG VV002
     FM241400 24003KT 5SM BR BKN008=



000
FTUS43 KGRB 231900 AAA
TAFGRB
TAF AMD
KGRB 231949Z 2320/2418 19007KT 6SM -SHRA SCT040 OVC070
      TEMPO 2321/2323 3SM -SHRA BR BKN035
     FM232300 19006KT 4SM -SHRA BR OVC015
     FM240100 24004KT 4SM BR BKN012
     FM240800 VRB03KT 1/2SM FG VV002
     FM241400 24003KT 5SM BR BKN008=



000
FTUS43 KGRB 231700
TAFGRB
TAF
KGRB 231722Z 2318/2418 20008G16KT P6SM BKN050
     FM231900 19009KT 6SM -SHRA BKN025 OVC040
      TEMPO 2319/2323 3SM -SHRA BR BKN025
     FM232300 19006KT 4SM -SHRA BR OVC015
     FM240100 24004KT 4SM BR BKN012
     FM240800 VRB03KT 1/2SM FG VV002
     FM241400 24003KT 5SM BR BKN008=



000
FTUS43 KGRB 231600 AAA
TAFGRB
TAF AMD
KGRB 231625Z 2316/2412 19008G18KT P6SM BKN080
     FM231900 19008G16KT 6SM -SHRA BKN025 OVC040
     FM232200 21006KT P6SM OVC015
     FM240100 24004KT 4SM BR BKN012
     FM240600 26004KT 6SM BR SCT003
     FM240800 VRB03KT 1/2SM FG VV002=



000
FTUS43 KGRB 231100
TAFGRB
TAF
KGRB 231123Z 2312/2412 19006KT P6SM BKN070
     FM231900 19009KT 6SM -SHRA BKN025 OVC040
     FM232200 21006KT P6SM OVC015
     FM240100 24004KT 4SM BR BKN012
     FM240600 26004KT 6SM BR SCT003
     FM240800 VRB03KT 1/2SM FG VV002=



000
FTUS43 KGRB 230800 AAA
TAFGRB
TAF AMD
KGRB 230839Z 2309/2406 20004KT 6SM BR SCT070 BKN250
     FM231500 18007KT P6SM SCT035 OVC050
     FM231900 19009KT 5SM -SHRA OVC015
     FM240100 22004KT 3SM BR OVC012=



000
FTUS43 KGRB 230500 AAA
TAFGRB
TAF AMD
KGRB 230559Z 2306/2406 16003KT 6SM BR SCT090
      TEMPO 2306/2308 4SM BR
     FM230800 16004KT 6SM BR SCT070 BKN250
      TEMPO 2308/2312 3SM BR
     FM231500 18007KT P6SM SCT035 OVC050
     FM231900 19009KT 5SM -SHRA OVC015
     FM240100 22004KT 3SM BR OVC012=



000
FTUS43 KGRB 230500
TAFGRB
TAF
KGRB 230520Z 2306/2406 16003KT P6SM SCT090
     FM230800 16004KT P6SM SCT070 BKN250
      TEMPO 2308/2312 3SM BR
     FM231500 18007KT P6SM SCT035 OVC050
     FM231900 19009KT 5SM -SHRA OVC015
     FM240100 22004KT 3SM BR OVC012=



000
FTUS43 KGRB 222300
TAFGRB
TAF
KGRB 222330Z 2300/2324 12007KT P6SM SCT090
     FM230800 16004KT P6SM SCT070 BKN250
      TEMPO 2308/2312 3SM BR
     FM231600 18008KT P6SM SCT035 OVC050
     FM232100 19009KT 5SM -SHRA BKN030=



000
FTUS43 KGRB 221700
TAFGRB
TAF
KGRB 221736Z 2218/2318 16005KT P6SM SCT030
     FM230000 15005KT P6SM SCT250
     FM230800 18004KT P6SM BKN250
      TEMPO 2308/2312 3SM BR
     FM231600 19008KT P6SM OVC050=



000
FTUS43 KGRB 221700
TAFGRB
TAF
KGRB 221736Z 2218/2318 16005KT P6SM SCT030
     FM230000 15005KT P6SM SCT250
     FM230800 18004KT P6SM BKN250
      TEMPO 2308/2312 3SM BR
     FM231600 19008KT P6SM OVC050=



000
FTUS43 KGRB 221500 AAC
TAFGRB
TAF AMD
KGRB 221501Z 2215/2312 VRB02KT P6SM SCT020
      TEMPO 2215/2216 5SM BR SCT003
     FM221600 12004KT P6SM SKC
     FM230000 15005KT P6SM SCT250
     FM230800 18004KT P6SM BKN250=



000
FTUS43 KGRB 221300 AAB
TAFGRB
TAF AMD
KGRB 221343Z 2214/2312 00000KT 1/4SM FG VV002
      TEMPO 2214/2215 3/4SM BR VV003
     FM221500 VRB02KT 2SM BR SCT002
      TEMPO 2215/2216 5SM BR
     FM221600 12004KT P6SM SKC
     FM230000 15005KT P6SM SCT250
     FM230800 18004KT P6SM BKN250=



000
FTUS43 KGRB 221300 AAA
TAFGRB
TAF AMD
KGRB 221304Z 2213/2312 00000KT 1/4SM FZFG VV002
      TEMPO 2213/2214 1/2SM FZFG VV003
     FM221400 VRB02KT 1SM BR SCT002
      TEMPO 2214/2215 4SM BR
     FM221500 12004KT P6SM SKC
     FM230000 15005KT P6SM SCT250
     FM230800 18004KT P6SM BKN250=



000
FTUS43 KGRB 221200 AAA
TAFGRB
TAF AMD
KGRB 221210Z 2212/2312 00000KT 1/2SM FZFG VV002
     FM221300 VRB02KT 1SM BR SCT002
      TEMPO 2213/2214 4SM BR
     FM221400 12004KT P6SM SKC
      TEMPO 2214/2215 5SM BR
     FM230000 15005KT P6SM SCT250
     FM230800 18004KT P6SM BKN250=



000
FTUS43 KGRB 221100
TAFGRB
TAF
KGRB 221124Z 2212/2312 12004KT P6SM SKC
      TEMPO 2212/2213 1/2SM FG BKN002
     FM230000 15005KT P6SM SCT250
     FM230800 18004KT P6SM BKN250=



000
FTUS43 KGRB 221000 AAB
TAFGRB
TAF AMD
KGRB 221041Z 2211/2306 VRB03KT 6SM BR SKC
      TEMPO 2211/2213 3SM BR BKN003
     FM221400 14005KT P6SM SKC
     FM222200 13006KT P6SM FEW140 SCT200=



000
FTUS43 KGRB 221000 AAA
TAFGRB
TAF AMD
KGRB 221015Z 2210/2306 VRB03KT P6SM SKC
     FM221400 14005KT P6SM SKC
     FM222200 13006KT P6SM FEW140 SCT200=



000
FTUS43 KGRB 221000 AAA
TAFGRB
TAF AMD
KGRB 221015Z 2210/2306 VRB03KT P6SM SKC
     FM221400 14005KT P6SM SKC
     FM222200 13006KT P6SM FEW140 SCT200=



000
FTUS43 KGRB 220500
TAFGRB
TAF
KGRB 220520Z 2206/2306 VRB03KT P6SM SKC
      TEMPO 2209/2212 4SM BR
     FM221400 14005KT P6SM SKC
     FM222200 13006KT P6SM FEW140 SCT200=



000
FTUS43 KGRB 220500
TAFGRB
TAF
KGRB 220520Z 2206/2306 VRB03KT P6SM SKC
      TEMPO 2209/2212 4SM BR
     FM221400 14005KT P6SM SKC
     FM222200 13006KT P6SM FEW140 SCT200=



000
FTUS43 KGRB 212300
TAFGRB
TAF
KGRB 212330Z 2200/2224 06006KT P6SM SKC
      TEMPO 2209/2212 4SM BR
     FM221400 14005KT P6SM SKC=



000
FTUS43 KGRB 211700
TAFGRB
TAF
KGRB 211734Z 2118/2218 04012G17KT P6SM FEW030
     FM212300 05007KT P6SM SKC
     FM220500 06003KT P6SM SKC
      TEMPO 2209/2212 4SM BR
     FM221400 11005KT P6SM SCT200=



    US Dept of Commerce
    National Oceanic and Atmospheric Administration
    National Weather Service
    1325 East West Highway
    Silver Spring, MD 20910
    Page Author: NWS Internet Services Team
Disclaimer
Information Quality
Credits
Glossary
Privacy Policy
Freedom of Information Act (FOIA)
About Us
Career Opportunities